TimeEST,TemperatureF,Dew PointF,Humidity,Sea Level PressureIn,VisibilityMPH,Wind Direction,Wind SpeedMPH,Gust SpeedMPH,PrecipitationIn,Events,Conditions,WindDirDegrees,DateUTC
12:15 AM,45.9,45.1,97,29.75,10.0,NE,13.8,24.2,N/A,Rain,Light Rain,50,2013-02-08 05:15:00
12:35 AM,45.7,44.8,97,29.73,7.0,NE,9.2,19.6,N/A,Rain,Light Rain,50,2013-02-08 05:35:00
12:55 AM,45.5,44.8,97,29.70,5.0,NE,11.5,19.6,0.02,Rain,Light Rain,50,2013-02-08 05:55:00
1:15 AM,45.3,44.6,97,29.69,7.0,NE,11.5,17.3,0.02,Rain,Light Rain,50,2013-02-08 06:15:00
1:35 AM,45.0,44.2,97,29.67,7.0,NE,9.2,-,0.03,Rain,Rain,40,2013-02-08 06:35:00
1:55 AM,44.6,43.9,97,29.69,4.0,West,9.2,-,0.09,Rain,Heavy Rain,260,2013-02-08 06:55:00
2:15 AM,43.9,43.2,97,29.69,5.0,NNW,9.2,-,0.08,Rain,Rain,340,2013-02-08 07:15:00
2:35 AM,42.4,41.9,98,29.69,3.0,North,9.2,-,0.17,Rain,Heavy Rain,360,2013-02-08 07:35:00
2:55 AM,40.8,40.1,97,29.67,10.0,North,9.2,17.3,0.18,Rain,Light Rain,360,2013-02-08 07:55:00
3:15 AM,39.9,39.2,97,29.67,10.0,North,9.2,16.1,N/A,,Overcast,350,2013-02-08 08:15:00
3:35 AM,38.7,37.6,96,29.66,10.0,North,9.2,-,N/A,,Overcast,360,2013-02-08 08:35:00
3:55 AM,38.1,36.7,95,29.67,10.0,NNW,8.1,-,N/A,,Overcast,340,2013-02-08 08:55:00
4:35 AM,37.2,35.4,93,29.69,10.0,NNW,6.9,17.3,N/A,,Overcast,340,2013-02-08 09:35:00
4:55 AM,36.1,34.3,93,29.71,10.0,North,6.9,-,N/A,,Overcast,350,2013-02-08 09:55:00
5:15 AM,36.5,34.5,93,29.72,10.0,North,4.6,-,N/A,,Overcast,350,2013-02-08 10:15:00
5:35 AM,37.9,35.8,92,29.74,10.0,NW,5.8,-,N/A,,Overcast,310,2013-02-08 10:35:00
5:55 AM,38.1,35.6,91,29.75,10.0,NNW,3.5,-,N/A,,Overcast,330,2013-02-08 10:55:00
6:15 AM,39.6,36.7,89,29.77,10.0,NW,5.8,-,N/A,,Overcast,310,2013-02-08 11:15:00
6:35 AM,40.8,38.1,90,29.77,10.0,North,5.8,-,N/A,,Overcast,350,2013-02-08 11:35:00
6:55 AM,41.4,38.7,90,29.78,10.0,North,5.8,-,N/A,,Mostly Cloudy,10,2013-02-08 11:55:00
7:15 AM,41.9,39.2,90,29.78,10.0,NNW,5.8,-,N/A,,Mostly Cloudy,330,2013-02-08 12:15:00
7:35 AM,42.1,39.7,91,29.79,10.0,WNW,5.8,-,N/A,,Overcast,300,2013-02-08 12:35:00
7:55 AM,40.5,37.9,91,29.81,10.0,NNW,5.8,-,N/A,,Overcast,340,2013-02-08 12:55:00
8:15 AM,41.0,38.1,89,29.82,10.0,WNW,5.8,-,N/A,,Scattered Clouds,300,2013-02-08 13:15:00
8:35 AM,42.8,38.1,84,29.82,10.0,NW,4.6,-,N/A,,Clear,320,2013-02-08 13:35:00
8:55 AM,44.4,38.3,79,29.82,10.0,WNW,4.6,-,N/A,,Clear,290,2013-02-08 13:55:00
9:15 AM,46.0,38.7,75,29.84,10.0,WNW,3.5,-,N/A,,Clear,300,2013-02-08 14:15:00
9:35 AM,46.9,38.8,73,29.85,10.0,WNW,4.6,-,N/A,,Clear,300,2013-02-08 14:35:00
9:55 AM,48.2,39.9,73,29.85,10.0,NW,5.8,-,N/A,,Clear,310,2013-02-08 14:55:00
10:15 AM,49.1,40.3,72,29.86,10.0,NW,3.5,-,N/A,,Clear,310,2013-02-08 15:15:00
10:35 AM,49.6,41.2,73,29.88,10.0,WNW,6.9,-,N/A,,Scattered Clouds,300,2013-02-08 15:35:00
10:55 AM,49.1,41.2,74,29.89,10.0,West,9.2,-,N/A,,Mostly Cloudy,270,2013-02-08 15:55:00
11:15 AM,47.7,41.0,78,29.90,10.0,West,9.2,-,N/A,,Overcast,280,2013-02-08 16:15:00
11:35 AM,47.1,40.6,78,29.89,10.0,NW,6.9,16.1,N/A,,Mostly Cloudy,310,2013-02-08 16:35:00
11:55 AM,47.8,40.5,76,29.89,10.0,West,10.4,16.1,N/A,,Scattered Clouds,280,2013-02-08 16:55:00
12:15 PM,48.9,40.5,73,29.88,10.0,WNW,6.9,-,N/A,,Scattered Clouds,290,2013-02-08 17:15:00
12:35 PM,50.0,41.2,72,29.87,10.0,West,5.8,-,N/A,,Scattered Clouds,280,2013-02-08 17:35:00
1:15 PM,52.2,41.7,68,29.87,10.0,West,5.8,-,N/A,,Clear,280,2013-02-08 18:15:00
1:35 PM,53.1,42.1,66,29.87,10.0,WSW,6.9,-,N/A,,Clear,250,2013-02-08 18:35:00
1:55 PM,54.3,42.1,63,29.86,10.0,West,5.8,-,N/A,,Clear,260,2013-02-08 18:55:00
2:15 PM,55.9,42.6,61,29.86,10.0,WNW,9.2,-,N/A,,Clear,300,2013-02-08 19:15:00
2:35 PM,57.0,42.3,58,29.86,10.0,West,9.2,-,N/A,,Clear,280,2013-02-08 19:35:00
2:55 PM,58.1,42.8,57,29.85,10.0,WSW,8.1,-,N/A,,Clear,250,2013-02-08 19:55:00
3:15 PM,58.5,42.8,56,29.85,10.0,WSW,5.8,-,N/A,,Clear,250,2013-02-08 20:15:00
3:35 PM,59.0,43.5,56,29.85,10.0,West,6.9,-,N/A,,Clear,280,2013-02-08 20:35:00
3:55 PM,59.9,44.2,56,29.85,10.0,West,3.5,-,N/A,,Clear,260,2013-02-08 20:55:00
4:15 PM,59.7,44.2,57,29.86,10.0,West,6.9,-,N/A,,Clear,270,2013-02-08 21:15:00
4:35 PM,59.5,44.4,57,29.86,10.0,West,5.8,-,N/A,,Clear,260,2013-02-08 21:35:00
4:55 PM,59.4,44.6,58,29.87,10.0,West,3.5,-,N/A,,Clear,260,2013-02-08 21:55:00
5:15 PM,58.5,45.1,61,29.88,10.0,West,4.6,-,N/A,,Clear,280,2013-02-08 22:15:00
5:35 PM,58.1,45.5,63,29.88,10.0,West,3.5,-,N/A,,Scattered Clouds,270,2013-02-08 22:35:00
5:55 PM,57.2,46.0,66,29.89,10.0,Calm,Calm,-,N/A,,Mostly Cloudy,0,2013-02-08 22:55:00
6:35 PM,56.5,46.6,69,29.90,10.0,Calm,Calm,-,N/A,,Mostly Cloudy,0,2013-02-08 23:35:00
6:55 PM,56.3,46.9,71,29.91,10.0,Calm,Calm,-,N/A,,Mostly Cloudy,0,2013-02-08 23:55:00
7:15 PM,56.3,46.8,70,29.92,10.0,Calm,Calm,-,N/A,,Mostly Cloudy,0,2013-02-09 00:15:00
7:35 PM,56.3,46.9,71,29.92,10.0,Calm,Calm,-,N/A,,Overcast,0,2013-02-09 00:35:00
7:55 PM,56.5,47.1,71,29.93,10.0,Calm,Calm,-,N/A,,Overcast,0,2013-02-09 00:55:00
8:15 PM,56.5,46.9,70,29.94,10.0,Calm,Calm,-,N/A,,Overcast,0,2013-02-09 01:15:00
8:35 PM,56.3,46.9,71,29.95,10.0,Calm,Calm,-,N/A,,Mostly Cloudy,0,2013-02-09 01:35:00
8:55 PM,55.4,46.9,73,29.96,10.0,WSW,3.5,-,N/A,,Scattered Clouds,250,2013-02-09 01:55:00
9:15 PM,54.9,46.8,74,29.97,10.0,Calm,Calm,-,N/A,,Scattered Clouds,0,2013-02-09 02:15:00
9:35 PM,53.8,45.9,75,29.98,10.0,Calm,Calm,-,N/A,,Clear,0,2013-02-09 02:35:00
9:55 PM,52.7,45.7,77,29.98,10.0,Calm,Calm,-,N/A,,Clear,0,2013-02-09 02:55:00
10:15 PM,52.0,44.1,74,29.99,10.0,Calm,Calm,-,N/A,,Clear,0,2013-02-09 03:15:00
10:35 PM,52.7,39.0,60,30.00,10.0,NW,4.6,-,N/A,,Clear,310,2013-02-09 03:35:00
10:55 PM,52.2,36.7,56,30.02,10.0,NW,4.6,-,N/A,,Clear,310,2013-02-09 03:55:00
11:15 PM,51.1,35.4,55,30.03,10.0,North,3.5,-,N/A,,Clear,350,2013-02-09 04:15:00
11:35 PM,50.0,32.9,52,30.04,10.0,North,6.9,-,N/A,,Clear,350,2013-02-09 04:35:00
11:55 PM,48.9,31.8,52,30.06,10.0,North,5.8,-,N/A,,Clear,360,2013-02-09 04:55:00